Terminal Aerodrome Forecast
Issued by NWS

Home | Current Version | Previous Version | Text Only | Print | Product List | Glossary On
Versions: 1 2 3 4 5 6 7 8 9 10 11 12 13
000
FTUS44 KCRP 162300
TAFLRD
TAF
KLRD 162330Z 1700/1724 13014G18KT P6SM FEW040 BKN200
     FM170300 14013KT P6SM FEW030 BKN200
     FM171000 15011KT P6SM OVC022
      TEMPO 1713/1716 BKN018 OVC025
     FM171900 12010KT P6SM SCT025 OVC040=

USA.gov is the U.S. government's official web portal to all federal, state and local government web resources and services.